Latest Weather Observations for Noonamah

IDD60901

Issued at 9:31 am CST Saturday 25 February 2017 (issued every 10 minutes, with the page automatically refreshed every 10 minutes)

About weather observations | Map of Darwin area stations | Latest observations for Darwin area | Other Formats
Station Details ID: 014314 Name: NOONAMAH AIRSTRIP Lat: -12.61 Lon: 131.05 Height: 17.5 m
Data from the previous 72 hours. | See also: Recent months at Noonamah
Date/Time
CST
Temp
°C
App
Temp
°C
Dew
Point
°C
Rel
Hum
%
Delta-T
°C
Wind Press
QNH
hPa
Press
MSL
hPa
Rain since
9am
mm
Dir  Spd
km/h
Gust
km/h
Spd
kts
Gust
kts
25/09:30am 29.5 35.6 25.0 77 3.2 WSW 2 6 1 3 1011.6 1011.4 0.0
25/09:00am 28.2 35.0 25.6 86 1.8 CALM 0 6 0 3 1011.6 1011.4 0.0
25/08:30am 27.6 34.2 25.2 87 1.7 CALM 0 0 0 0 1011.2 1011.0 0.0
25/08:00am 27.2 33.5 25.4 90 1.3 ESE 2 4 1 2 1010.9 1010.7 0.0
25/07:30am 26.1 32.7 25.2 95 0.6 CALM 0 0 0 0 1010.6 1010.4 0.0
25/07:00am 25.2 31.5 24.7 97 0.3 CALM 0 0 0 0 1010.3 1010.1 0.0
25/06:30am 25.0 31.0 24.3 96 0.5 CALM 0 0 0 0 1010.0 1009.8 0.0
25/06:00am 24.9 30.9 24.2 96 0.5 CALM 0 0 0 0 1009.7 1009.5 0.0
25/05:30am 24.8 30.6 23.9 95 0.6 CALM 0 0 0 0 1009.3 1009.1 0.0
25/05:00am 24.9 30.9 24.2 96 0.5 CALM 0 0 0 0 1009.2 1009.0 0.0
25/04:30am 24.9 30.9 24.2 96 0.5 CALM 0 0 0 0 1008.9 1008.7 0.0
25/04:00am 25.0 30.9 24.1 95 0.6 CALM 0 0 0 0 1008.8 1008.6 0.0
25/03:30am 25.1 30.2 24.6 97 0.3 SSE 6 7 3 4 1008.8 1008.6 0.0
25/03:00am 24.9 30.7 24.0 95 0.6 CALM 0 0 0 0 1008.8 1008.6 0.0
25/02:30am 25.4 31.7 24.7 96 0.5 CALM 0 0 0 0 1009.3 1009.1 0.0
25/02:00am 25.2 31.2 24.3 95 0.6 CALM 0 0 0 0 1009.6 1009.4 0.0
25/01:30am 25.4 31.5 24.5 95 0.6 CALM 0 0 0 0 1010.0 1009.8 0.0
25/01:00am 25.5 31.6 24.5 94 0.7 CALM 0 0 0 0 1010.2 1010.0 0.0
25/12:30am 25.7 32.0 24.8 95 0.6 CALM 0 0 0 0 1010.3 1010.1 0.0
25/12:00am 25.7 32.0 24.7 94 0.7 CALM 0 0 0 0 1010.6 1010.4 0.0
 
Date/Time
CST
Temp
°C
App
Temp
°C
Dew
Point
°C
Rel
Hum
%
Delta-T
°C
Wind Press
QNH
hPa
Press
MSL
hPa
Rain since
9am
mm
Dir  Spd
km/h
Gust
km/h
Spd
kts
Gust
kts
24/11:30pm 26.0 32.5 25.0 94 0.7 CALM 0 0 0 0 1010.8 1010.6 0.0
24/11:00pm 25.9 31.5 24.9 94 0.7 SE 4 6 2 3 1010.8 1010.6 0.0
24/10:30pm 26.0 32.0 24.8 93 0.8 NW 2 2 1 1 1010.2 1010.0 0.0
24/10:00pm 26.1 31.6 24.7 92 1.0 NW 4 4 2 2 1009.7 1009.5 0.0
24/09:30pm 26.5 32.4 24.7 90 1.3 NW 2 4 1 2 1009.6 1009.4 0.0
24/09:00pm 26.7 32.0 24.4 87 1.6 NNW 4 6 2 3 1009.4 1009.2 0.0
24/08:30pm 27.3 33.0 24.4 84 2.0 N 2 4 1 2 1009.5 1009.3 0.0
24/08:00pm 27.6 32.7 24.0 81 2.5 NW 4 4 2 2 1009.1 1008.9 0.0
24/07:30pm 28.4 33.1 24.0 77 3.0 NNW 6 9 3 5 1009.0 1008.8 0.0
24/07:00pm 29.3 33.6 23.7 72 3.9 NNW 7 13 4 7 1009.1 1008.9 0.0
24/06:30pm 30.7 36.0 25.3 73 3.8 NW 7 15 4 8 1008.6 1008.4 0.0
24/06:00pm 30.9 36.7 25.7 74 3.7 NW 6 9 3 5 1008.2 1008.0 0.0
24/05:30pm 30.3 35.9 25.4 75 3.5 NNW 6 9 3 5 1008.0 1007.8 0.0
24/05:00pm 29.8 34.9 24.0 71 4.0 NNW 4 6 2 3 1007.9 1007.7 0.0
24/04:30pm 29.7 33.5 21.6 61 5.5 NW 4 6 2 3 1008.0 1007.8 0.0
24/04:00pm 30.2 33.5 22.6 63 5.2 NNW 9 19 5 10 1007.9 1007.7 0.0
24/03:30pm 31.7 37.1 25.1 68 4.7 N 6 9 3 5 1007.7 1007.5 0.0
24/03:00pm 31.8 37.1 24.9 67 4.9 NNE 6 9 3 5 1008.0 1007.8 0.0
24/02:30pm 31.9 36.8 24.7 65 5.1 N 7 9 4 5 1008.4 1008.2 0.0
24/02:00pm 32.5 36.8 22.6 56 6.8 NW 4 7 2 4 1008.8 1008.6 0.0
24/01:30pm 32.5 36.5 22.0 54 7.2 WNW 4 9 2 5 1009.3 1009.1 0.0
24/01:00pm 32.1 36.1 23.1 59 6.2 WNW 7 9 4 5 1009.8 1009.6 0.0
24/12:30pm 31.7 36.1 23.8 63 5.5 W 7 13 4 7 1010.3 1010.1 0.0
24/12:00pm 31.8 35.8 23.1 60 6.0 WNW 7 13 4 7 1010.7 1010.5 0.0
24/11:30am 31.3 36.1 24.4 66 4.8 NNW 7 11 4 6 1011.0 1010.8 0.0
24/11:00am 31.6 36.2 24.2 65 5.2 NNW 7 13 4 7 1011.2 1011.0 0.0
24/10:30am 30.8 36.5 25.6 74 3.7 NNE 6 9 3 5 1011.3 1011.1 0.0
24/10:00am 30.0 36.6 26.4 81 2.6 NE 4 7 2 4 1011.3 1011.1 0.0
24/09:30am 29.0 35.9 26.8 88 1.6 ENE 4 7 2 4 1011.3 1011.1 0.0
24/09:00am 28.2 34.4 26.6 91 1.1 ENE 7 9 4 5 1011.3 1011.1 0.0
24/08:30am 27.6 33.8 26.4 93 0.9 E 6 7 3 4 1011.0 1010.8 0.0
24/08:00am 27.1 34.2 26.0 94 0.8 CALM 0 2 0 1 1010.6 1010.4 0.0
24/07:30am 27.0 34.1 26.0 94 0.7 CALM 0 2 0 1 1010.5 1010.3 0.0
24/07:00am 26.8 33.0 25.8 94 0.7 SE 4 6 2 3 1010.4 1010.2 0.0
24/06:30am 27.0 34.0 25.8 93 0.8 CALM 0 0 0 0 1009.9 1009.7 0.0
24/06:00am 27.0 33.1 25.6 92 1.0 NW 4 6 2 3 1009.3 1009.1 0.0
24/05:30am 26.8 32.9 25.6 93 0.8 WNW 4 6 2 3 1008.6 1008.4 0.0
24/05:00am 26.7 32.8 25.7 94 0.7 W 4 4 2 2 1008.3 1008.1 0.0
24/04:30am 26.8 33.0 25.8 94 0.7 NW 4 4 2 2 1008.5 1008.3 0.0
24/04:00am 26.8 33.3 25.6 93 0.8 NW 2 4 1 2 1008.3 1008.1 0.0
24/03:30am 27.0 33.2 25.8 93 0.8 WNW 4 7 2 4 1007.9 1007.7 0.0
24/03:00am 26.7 32.8 25.7 94 0.7 NW 4 6 2 3 1008.1 1007.9 0.0
24/02:30am 26.7 33.5 25.5 93 0.8 CALM 0 0 0 0 1008.4 1008.2 0.0
24/02:00am 26.9 32.5 25.5 92 1.0 NW 6 7 3 4 1008.4 1008.2 0.0
24/01:30am 26.9 32.9 25.5 92 1.0 NNW 4 4 2 2 1008.5 1008.3 0.0
24/01:00am 27.1 33.1 25.5 91 1.1 NW 4 6 2 3 1008.9 1008.7 0.0
24/12:30am 27.3 32.8 25.3 89 1.4 NNW 6 7 3 4 1009.1 1008.9 0.0
24/12:00am 27.7 33.6 25.3 87 1.7 NNW 4 7 2 4 1009.3 1009.1 0.0
 
Date/Time
CST
Temp
°C
App
Temp
°C
Dew
Point
°C
Rel
Hum
%
Delta-T
°C
Wind Press
QNH
hPa
Press
MSL
hPa
Rain since
9am
mm
Dir  Spd
km/h
Gust
km/h
Spd
kts
Gust
kts
23/11:30pm 27.7 33.2 25.3 87 1.7 NW 6 7 3 4 1009.4 1009.2 0.0
23/11:00pm 27.9 33.4 25.3 86 1.8 NW 6 7 3 4 1009.2 1009.0 0.0
23/10:30pm 28.1 33.6 25.3 85 2.0 NW 6 6 3 3 1008.8 1008.6 0.0
23/10:00pm 28.3 33.8 25.3 84 2.1 WNW 6 7 3 4 1008.5 1008.3 0.0
23/09:30pm 28.9 34.5 25.5 82 2.4 NW 6 7 3 4 1008.2 1008.0 0.0
23/09:00pm 29.2 34.6 25.4 80 2.7 W 7 13 4 7 1007.8 1007.6 0.0
23/08:30pm 29.4 35.4 26.0 82 2.4 NW 6 7 3 4 1007.6 1007.4 0.0
23/08:00pm 29.9 35.8 25.9 79 2.8 NW 6 9 3 5 1007.3 1007.1 0.0
23/07:30pm 30.5 36.1 25.8 76 3.3 NW 7 11 4 6 1007.0 1006.8 0.0
23/07:00pm 31.6 37.2 25.7 71 4.2 NW 7 13 4 7 1006.6 1006.4 0.0
23/06:30pm 33.0 38.8 26.0 66 5.0 NNW 7 11 4 6 1006.2 1006.0 0.0
23/06:00pm 35.0 40.4 25.2 57 7.0 NW 6 11 3 6 1006.0 1005.8 0.0
23/05:30pm 36.7 37.9 18.3 34 12.1 E 9 15 5 8 1005.6 1005.4 0.0
23/05:00pm 37.0 37.5 16.5 29 13.1 E 9 13 5 7 1005.4 1005.2 0.0
23/04:30pm 37.0 38.1 17.1 31 12.9 E 7 15 4 8 1005.4 1005.2 0.0
23/04:00pm 37.2 38.6 17.7 31 12.7 SSE 7 13 4 7 1005.4 1005.2 0.0
23/03:30pm 36.7 37.5 17.3 31 12.6 ESE 9 15 5 8 1005.5 1005.3 0.0
23/03:00pm 36.9 39.1 18.4 33 12.2 SSE 4 9 2 5 1005.7 1005.5 0.0
23/02:30pm 36.9 39.4 19.8 36 11.5 SSW 6 15 3 8 1006.1 1005.9 0.0
23/02:00pm 36.5 38.8 19.4 36 11.4 SE 6 13 3 7 1006.5 1006.3 0.0
23/01:30pm 35.4 37.6 19.3 38 10.7 SE 6 9 3 5 1007.1 1006.9 0.0
23/01:00pm 35.0 38.6 21.3 45 9.3 S 4 9 2 5 1007.6 1007.4 0.0
23/12:30pm 34.9 38.6 22.2 47 8.7 SSW 6 9 3 5 1008.2 1008.0 0.0
23/12:00pm 33.9 36.8 20.6 45 8.9 WSW 6 13 3 7 1008.6 1008.4 0.0
23/11:30am 32.9 36.5 22.4 54 7.2 W 7 11 4 6 1008.9 1008.7 0.0
23/11:00am 32.6 36.9 23.3 58 6.4 WSW 6 11 3 6 1009.5 1009.3 0.0
23/10:30am 31.8 36.1 23.3 60 5.9 SW 6 9 3 5 1009.7 1009.5 0.0
23/10:00am 30.7 34.3 23.1 64 5.2 WSW 9 15 5 8 1010.0 1009.8 0.0
23/09:30am 29.9 34.2 24.3 72 3.9 W 9 13 5 7 1009.9 1009.7 0.0
23/09:00am 28.5 33.9 25.1 82 2.4 SW 6 7 3 4 1009.9 1009.7 0.0
23/08:30am 27.1 32.4 24.9 88 1.5 WSW 6 9 3 5 1009.7 1009.5 0.0
23/08:00am 25.6 31.7 24.4 93 0.8 CALM 0 2 0 1 1009.5 1009.3 0.0
23/07:30am 24.0 29.6 23.5 97 0.3 CALM 0 0 0 0 1009.2 1009.0 0.0
23/07:00am 22.7 27.4 21.9 95 0.5 CALM 0 0 0 0 1009.0 1008.8 0.0
23/06:30am 22.9 27.7 22.1 95 0.5 CALM 0 0 0 0 1008.9 1008.7 0.0
23/06:00am 22.9 27.7 22.1 95 0.5 CALM 0 0 0 0 1008.7 1008.5 0.0
23/05:30am 23.2 28.2 22.5 96 0.5 CALM 0 0 0 0 1008.4 1008.2 0.0
23/05:00am 23.3 28.3 22.5 95 0.5 CALM 0 0 0 0 1008.4 1008.2 0.0
23/04:30am 23.4 28.5 22.6 95 0.5 CALM 0 0 0 0 1008.3 1008.1 0.0
23/04:00am 23.4 28.5 22.6 95 0.5 CALM 0 0 0 0 1008.0 1007.8 0.0
23/03:30am 23.6 28.7 22.6 94 0.7 CALM 0 0 0 0 1007.8 1007.6 0.0
23/03:00am 23.8 29.0 22.8 94 0.7 CALM 0 0 0 0 1007.7 1007.5 0.0
23/02:30am 24.2 29.6 23.3 95 0.6 CALM 0 2 0 1 1007.9 1007.7 0.0
23/02:00am 24.4 29.9 23.4 94 0.7 CALM 0 0 0 0 1008.3 1008.1 0.0
23/01:30am 24.8 30.4 23.6 93 0.8 CALM 0 0 0 0 1008.8 1008.6 0.0
23/01:00am 25.1 30.9 23.9 93 0.8 CALM 0 0 0 0 1009.3 1009.1 0.0
23/12:30am 25.3 31.1 23.9 92 1.0 CALM 0 0 0 0 1009.7 1009.5 0.0
23/12:00am 25.6 31.4 24.0 91 1.1 CALM 0 0 0 0 1010.2 1010.0 0.0
 
Date/Time
CST
Temp
°C
App
Temp
°C
Dew
Point
°C
Rel
Hum
%
Delta-T
°C
Wind Press
QNH
hPa
Press
MSL
hPa
Rain since
9am
mm
Dir  Spd
km/h
Gust
km/h
Spd
kts
Gust
kts
22/11:30pm 26.0 32.0 24.2 90 1.2 CALM 0 0 0 0 1010.4 1010.2 0.0
22/11:00pm 26.4 31.6 24.2 88 1.5 WSW 4 4 2 2 1010.3 1010.1 0.0
22/10:30pm 27.2 33.0 24.5 85 1.9 W 2 4 1 2 1010.2 1010.0 0.0
22/10:00pm 27.5 32.6 24.1 82 2.3 WNW 4 6 2 3 1009.9 1009.7 0.0
22/09:30pm 28.0 32.8 24.2 80 2.6 W 6 7 3 4 1009.7 1009.5 0.0
22/09:00pm 28.4 33.5 24.6 80 2.7 W 6 7 3 4 1009.5 1009.3 0.0
22/08:30pm 28.6 33.4 24.2 77 3.1 NW 6 7 3 4 1009.2 1009.0 0.0
22/08:00pm 29.3 34.2 24.4 75 3.4 NW 6 7 3 4 1008.8 1008.6 0.0
22/07:30pm 29.9 34.6 24.3 72 3.9 WNW 7 11 4 6 1008.4 1008.2 0.0
22/07:00pm 30.9 35.0 24.5 68 4.5 WNW 11 15 6 8 1008.0 1007.8 0.0
22/06:30pm 32.0 36.2 24.8 65 5.1 WNW 11 19 6 10 1007.6 1007.4 0.0
22/06:00pm 32.5 35.8 24.5 62 5.6 WNW 15 19 8 10 1007.3 1007.1 0.0
22/05:30pm 33.4 38.0 25.4 63 5.7 WNW 11 17 6 9 1007.0 1006.8 0.0
22/05:00pm 33.7 37.7 23.7 56 7.0 WNW 9 15 5 8 1007.0 1006.8 0.0
22/04:30pm 36.0 37.9 17.7 34 11.9 SE 4 13 2 7 1007.0 1006.8 0.0
22/04:00pm 36.0 37.4 17.7 34 11.9 S 7 15 4 8 1007.1 1006.9 0.0
22/03:30pm 36.2 37.8 18.3 34 11.7 SSW 7 13 4 7 1007.2 1007.0 0.0
22/03:00pm 35.1 37.2 18.2 36 11.0 WSW 4 9 2 5 1007.4 1007.2 0.0
22/02:30pm 35.6 37.6 18.7 37 11.1 S 6 13 3 7 1007.7 1007.5 0.0
22/02:00pm 35.5 37.4 19.0 37 10.9 SW 7 11 4 6 1008.1 1007.9 0.0
22/01:30pm 34.7 36.5 20.3 43 9.7 W 11 20 6 11 1008.6 1008.4 0.0
22/01:00pm 34.8 37.7 21.1 44 9.3 W 7 17 4 9 1009.1 1008.9 0.0
22/12:30pm 34.1 36.2 19.0 41 9.9 W 6 15 3 8 1009.6 1009.4 0.0
22/12:00pm 33.5 36.4 20.6 46 8.6 W 6 13 3 7 1010.2 1010.0 0.0
22/11:30am 33.1 36.3 21.6 51 7.8 W 7 13 4 7 1010.5 1010.3 0.0
22/11:00am 32.4 35.3 21.0 51 7.7 W 7 15 4 8 1010.6 1010.4 0.0
22/10:30am 31.5 35.5 23.1 61 5.8 W 7 13 4 7 1010.9 1010.7 0.0
22/10:00am 30.7 35.6 24.6 70 4.3 W 7 11 4 6 1011.0 1010.8 0.0

Latest Capital City Observations: Canberra | Sydney | Melbourne | Brisbane | Adelaide | Perth | Hobart | Darwin

Other Formats:

Comma delimited format used in spreadsheet applications
http://www.bom.gov.au/fwo/IDD60901/IDD60901.94105.axf

JavaScript Object Notation format (JSON) in row-major order
http://www.bom.gov.au/fwo/IDD60901/IDD60901.94105.json